Randolph, Massachusetts
Current Conditions -  °F | °C
As of 7:53 PM on Friday 31 Oct 2014 (Local Time) from KOWD Reporting Station
Overcast Overcast  
Wind Chill: 50°   Ceiling: 5500
Heat Index: 50°   Visibility: 10mi
Dew Point: 37°   Wind: 9mph
Humidity: 61%   Direction: 60°ENE
Pressure: 29.99"   Gusts: NA
Location:  42.16°N, 71.04°W
Report Text: KOWD 312353Z 06008KT 10SM OVC055 10/03 A2999 RMK AO2 SLP155 T01000028 10111 20094 50005
Loading
Personal Weather Stations






























Interactive Weather Map
Tropical Storm Tracking
New forecast layout! Learn more

10-Day Weather Forecast

Advertisements
Track Severe Weather on mobile